Time;durP1;ratioP1;P1;durP2;ratioP2;P2;SDS_P1;SDS_P2;PMS_P1;PMS_P2;Temp;Humidity;BMP_temperature;BMP_pressure;BME280_temperature;BME280_humidity;BME280_pressure;Samples;Min_cycle;Max_cycle;Signal;HPM_P1;HPM_P2
2022/07/25 00:00:38;;;;;;;;;;;;;;;;;;2075331;28;20379;-84
2022/07/25 00:01:38;;;;;;;;;;;;;;;;;;2075733;28;19914;-84
2022/07/25 00:02:38;;;;;;;;;;;;;;;;;;2075900;28;19906;-84
2022/07/25 00:03:47;;;;;;;;;;;;;;;;;;2070138;28;20330;-85
2022/07/25 00:04:48;;;;;;;;;;;;;;;;;;2067775;28;20379;-85
2022/07/25 00:05:48;;;;;;;;;;;;;;;;;;2066443;28;19926;-84
2022/07/25 00:06:48;;;;;;;;;;;;;;;;;;2065848;28;20374;-85
2022/07/25 00:07:49;;;;;;;;;;;;;;;;;;2065586;28;20367;-84
2022/07/25 00:08:49;;;;;;;;;;;;;;;;;;2065434;28;19917;-85
2022/07/25 00:10:03;;;;;;;;;;;;;;;;;;2073279;28;20424;-84
2022/07/25 00:11:04;;;;;;;;;;;;;;;;;;2073255;28;19932;-86
2022/07/25 00:12:04;;;;;;;;;;;;;;;;;;2073346;28;20354;-86
2022/07/25 00:13:07;;;;;;;;;;;;;;;;;;2073074;28;19922;-87
2022/07/25 00:14:17;;;;;;;;;;;;;;;;;;2065270;28;19913;-86
2022/07/25 00:15:20;;;;;;;;;;;;;;;;;;2066255;28;19918;-85
2022/07/25 00:16:20;;;;;;;;;;;;;;;;;;2073051;28;19972;-87
2022/07/25 00:17:23;;;;;;;;;;;;;;;;;;2065569;28;20001;-85
2022/07/25 00:18:23;;;;;;;;;;;;;;;;;;2065675;28;19918;-84
2022/07/25 00:19:23;;;;;;;;;;;;;;;;;;2065637;28;19975;-84
2022/07/25 00:20:24;;;;;;;;;;;;;;;;;;2065458;28;19914;-85
2022/07/25 00:21:24;;;;;;;;;;;;;;;;;;2065043;28;19945;-85
2022/07/25 00:22:24;;;;;;;;;;;;;;;;;;2065315;28;19914;-85
2022/07/25 00:23:25;;;;;;;;;;;;;;;;;;2065571;28;19914;-84
2022/07/25 00:24:25;;;;;;;;;;;;;;;;;;2065655;28;20402;-85
2022/07/25 00:25:25;;;;;;;;;;;;;;;;;;2065590;28;19914;-85
2022/07/25 00:26:26;;;;;;;;;;;;;;;;;;2065027;28;19914;-86
2022/07/25 00:27:26;;;;;;;;;;;;;;;;;;2065121;28;19913;-84
2022/07/25 00:28:26;;;;;;;;;;;;;;;;;;2073280;28;20465;-86
2022/07/25 00:29:27;;;;;;;;;;;;;;;;;;2073354;28;19953;-85
2022/07/25 00:30:27;;;;;;;;;;;;;;;;;;2065593;28;20383;-85
2022/07/25 00:31:27;;;;;;;;;;;;;;;;;;2065493;28;19924;-85
2022/07/25 00:32:30;;;;;;;;;;;;;;;;;;2073293;28;20373;-86
2022/07/25 00:33:30;;;;;;;;;;;;;;;;;;2073093;28;19928;-86
2022/07/25 00:34:32;;;;;;;;;;;;;;;;;;2065616;28;19918;-84
2022/07/25 00:35:33;;;;;;;;;;;;;;;;;;2065664;28;19918;-84
2022/07/25 00:36:33;;;;;;;;;;;;;;;;;;2064872;28;20367;-83
2022/07/25 00:37:33;;;;;;;;;;;;;;;;;;2065194;28;19921;-86
2022/07/25 00:38:34;;;;;;;;;;;;;;;;;;2065523;28;20410;-86
2022/07/25 00:39:34;;;;;;;;;;;;;;;;;;2065592;28;20363;-85
2022/07/25 00:40:34;;;;;;;;;;;;;;;;;;2065543;28;19938;-84
2022/07/25 00:41:35;;;;;;;;;;;;;;;;;;2065626;28;19972;-84
2022/07/25 00:42:35;;;;;;;;;;;;;;;;;;2065521;28;19983;-83
2022/07/25 00:43:36;;;;;;;;;;;;;;;;;;2065520;28;19972;-84
2022/07/25 00:44:36;;;;;;;;;;;;;;;;;;2065450;28;20514;-87
2022/07/25 00:45:36;;;;;;;;;;;;;;;;;;2065518;28;19917;-85
2022/07/25 00:46:37;;;;;;;;;;;;;;;;;;2065416;28;19945;-84
2022/07/25 00:47:37;;;;;;;;;;;;;;;;;;2065641;28;20208;-84
2022/07/25 00:48:38;;;;;;;;;;;;;;;;;;2065589;28;19922;-85
2022/07/25 00:49:39;;;;;;;;;;;;;;;;;;2065146;28;19939;-86
2022/07/25 00:50:39;;;;;;;;;;;;;;;;;;2065073;28;19947;-85
2022/07/25 00:51:39;;;;;;;;;;;;;;;;;;2065537;28;20370;-84
2022/07/25 00:52:40;;;;;;;;;;;;;;;;;;2065396;28;20264;-84
2022/07/25 00:53:40;;;;;;;;;;;;;;;;;;2065559;28;19914;-83
2022/07/25 00:54:40;;;;;;;;;;;;;;;;;;2065455;28;19914;-85
2022/07/25 00:55:41;;;;;;;;;;;;;;;;;;2065485;28;19941;-84
2022/07/25 00:56:41;;;;;;;;;;;;;;;;;;2065356;28;20189;-82
2022/07/25 00:57:42;;;;;;;;;;;;;;;;;;2073109;28;19980;-84
2022/07/25 00:58:44;;;;;;;;;;;;;;;;;;2064862;28;19928;-85
2022/07/25 00:59:44;;;;;;;;;;;;;;;;;;2065160;28;19927;-85
2022/07/25 01:00:45;;;;;;;;;;;;;;;;;;2065495;28;19925;-84
2022/07/25 01:01:46;;;;;;;;;;;;;;;;;;2065454;28;20287;-84
2022/07/25 01:02:47;;;;;;;;;;;;;;;;;;2065544;28;19921;-85
2022/07/25 01:03:47;;;;;;;;;;;;;;;;;;2065341;28;19918;-84
2022/07/25 01:04:50;;;;;;;;;;;;;;;;;;2065471;28;19913;-86
2022/07/25 01:05:53;;;;;;;;;;;;;;;;;;2065702;28;20343;-84
2022/07/25 01:06:53;;;;;;;;;;;;;;;;;;2065700;28;19913;-84
2022/07/25 01:07:54;;;;;;;;;;;;;;;;;;2065682;28;20004;-85
2022/07/25 01:08:54;;;;;;;;;;;;;;;;;;2065722;28;19957;-85
2022/07/25 01:09:55;;;;;;;;;;;;;;;;;;2065529;28;19914;-84
2022/07/25 01:10:55;;;;;;;;;;;;;;;;;;2065626;28;19914;-86
2022/07/25 01:11:56;;;;;;;;;;;;;;;;;;2072914;28;20181;-86
2022/07/25 01:12:56;;;;;;;;;;;;;;;;;;2073050;28;20326;-81
2022/07/25 01:13:59;;;;;;;;;;;;;;;;;;2065371;28;19918;-85
2022/07/25 01:14:59;;;;;;;;;;;;;;;;;;2065626;28;19965;-88
2022/07/25 01:15:59;;;;;;;;;;;;;;;;;;2065476;28;19941;-91
2022/07/25 01:17:00;;;;;;;;;;;;;;;;;;2065542;28;20347;-84
2022/07/25 01:18:03;;;;;;;;;;;;;;;;;;2065373;28;19961;-85
2022/07/25 01:19:03;;;;;;;;;;;;;;;;;;2064954;28;20302;-85
2022/07/25 01:20:04;;;;;;;;;;;;;;;;;;2064999;28;19914;-82
2022/07/25 01:21:04;;;;;;;;;;;;;;;;;;2065778;28;19914;-78
2022/07/25 01:22:05;;;;;;;;;;;;;;;;;;2073080;28;19918;-82
2022/07/25 01:23:05;;;;;;;;;;;;;;;;;;2073075;28;19914;-86
2022/07/25 01:24:06;;;;;;;;;;;;;;;;;;2065533;28;20009;-85
2022/07/25 01:25:09;;;;;;;;;;;;;;;;;;2073124;28;19971;-91
2022/07/25 01:26:12;;;;;;;;;;;;;;;;;;2072737;28;19913;-83
2022/07/25 01:27:12;;;;;;;;;;;;;;;;;;2073161;28;20020;-83
2022/07/25 01:28:14;;;;;;;;;;;;;;;;;;2073051;28;20457;-83
2022/07/25 01:29:15;;;;;;;;;;;;;;;;;;2073084;28;19913;-84
2022/07/25 01:30:23;;;;;;;;;;;;;;;;;;2073025;28;19914;-84
2022/07/25 01:31:24;;;;;;;;;;;;;;;;;;2065605;28;19910;-87
2022/07/25 01:32:24;;;;;;;;;;;;;;;;;;2065410;28;19921;-83
2022/07/25 01:33:24;;;;;;;;;;;;;;;;;;2067077;28;20332;-85
2022/07/25 01:34:24;;;;;;;;;;;;;;;;;;2066931;28;19914;-86
2022/07/25 01:35:27;;;;;;;;;;;;;;;;;;2074697;28;19913;-81
2022/07/25 01:36:31;;;;;;;;;;;;;;;;;;2074009;28;20405;-93
2022/07/25 01:37:31;;;;;;;;;;;;;;;;;;2066435;28;19913;-85
2022/07/25 01:38:34;;;;;;;;;;;;;;;;;;2066806;28;19921;-85
2022/07/25 01:39:34;;;;;;;;;;;;;;;;;;2066825;28;19924;-81
2022/07/25 01:40:36;;;;;;;;;;;;;;;;;;2066811;28;19913;-90
2022/07/25 01:41:37;;;;;;;;;;;;;;;;;;2066907;28;20190;-87
2022/07/25 01:42:39;;;;;;;;;;;;;;;;;;2074442;28;20330;-86
2022/07/25 01:43:39;;;;;;;;;;;;;;;;;;2066236;28;19922;-86
2022/07/25 01:44:40;;;;;;;;;;;;;;;;;;2066268;28;20268;-87
2022/07/25 01:45:43;;;;;;;;;;;;;;;;;;2074288;28;19913;-86
2022/07/25 01:46:43;;;;;;;;;;;;;;;;;;2073948;28;20270;-87
2022/07/25 01:47:43;;;;;;;;;;;;;;;;;;2066273;28;19924;-89
2022/07/25 01:48:46;;;;;;;;;;;;;;;;;;2066889;28;19914;-88
2022/07/25 01:49:46;;;;;;;;;;;;;;;;;;2066835;28;19940;-86
2022/07/25 01:50:46;;;;;;;;;;;;;;;;;;2066764;28;19956;-90
2022/07/25 01:51:50;;;;;;;;;;;;;;;;;;2066704;28;19918;-88
2022/07/25 01:52:50;;;;;;;;;;;;;;;;;;2066959;28;19914;-88
2022/07/25 01:53:50;;;;;;;;;;;;;;;;;;2066658;28;20410;-86
2022/07/25 01:54:51;;;;;;;;;;;;;;;;;;2066185;28;19932;-88
2022/07/25 01:55:51;;;;;;;;;;;;;;;;;;2066061;28;20346;-91
2022/07/25 01:56:54;;;;;;;;;;;;;;;;;;2066683;28;19924;-90
2022/07/25 01:57:54;;;;;;;;;;;;;;;;;;2066738;28;19914;-86
2022/07/25 01:58:56;;;;;;;;;;;;;;;;;;2066639;28;19914;-90
2022/07/25 02:00:00;;;;;;;;;;;;;;;;;;2074212;28;20036;-84
2022/07/25 02:01:00;;;;;;;;;;;;;;;;;;2066251;28;19918;-85
2022/07/25 02:02:00;;;;;;;;;;;;;;;;;;2066237;28;20363;-92
2022/07/25 02:04:22;;;;;;;;;;;;;;;;;;2071775;28;19956;-86
2022/07/25 02:05:23;;;;;;;;;;;;;;;;;;2066873;28;19918;-89
2022/07/25 02:06:23;;;;;;;;;;;;;;;;;;2074079;28;19921;-89
2022/07/25 02:07:26;;;;;;;;;;;;;;;;;;2074235;28;20373;-91
2022/07/25 02:08:29;;;;;;;;;;;;;;;;;;2066652;28;19913;-87
2022/07/25 02:09:32;;;;;;;;;;;;;;;;;;2066293;28;19917;-92
2022/07/25 02:10:35;;;;;;;;;;;;;;;;;;2066362;28;19925;-91
2022/07/25 02:11:35;;;;;;;;;;;;;;;;;;2066724;28;20327;-90
2022/07/25 02:12:39;;;;;;;;;;;;;;;;;;2066562;28;19979;-89
2022/07/25 02:13:39;;;;;;;;;;;;;;;;;;2074245;28;19917;-89
2022/07/25 02:14:42;;;;;;;;;;;;;;;;;;2074257;28;19917;-91
2022/07/25 02:15:45;;;;;;;;;;;;;;;;;;2066727;28;19918;-90
2022/07/25 02:16:48;;;;;;;;;;;;;;;;;;2073921;28;20037;-91
2022/07/25 02:17:49;;;;;;;;;;;;;;;;;;2073914;28;20414;-88
2022/07/25 02:18:49;;;;;;;;;;;;;;;;;;2074194;28;19913;-91
2022/07/25 02:19:59;;;;;;;;;;;;;;;;;;2066027;28;19914;-89
2022/07/25 02:21:05;;;;;;;;;;;;;;;;;;2059233;28;19913;-89
2022/07/25 02:22:09;;;;;;;;;;;;;;;;;;2058747;28;19914;-89
2022/07/25 02:23:10;;;;;;;;;;;;;;;;;;2066292;28;19924;-89
2022/07/25 02:24:15;;;;;;;;;;;;;;;;;;2074201;28;19948;-88
2022/07/25 02:25:15;;;;;;;;;;;;;;;;;;2066870;28;19917;-88
2022/07/25 02:26:16;;;;;;;;;;;;;;;;;;2066331;28;19918;-91
2022/07/25 02:27:28;;;;;;;;;;;;;;;;;;;;;
2022/07/25 02:28:38;;;;;;;;;;;;;;;;;;2066546;28;19981;-89
2022/07/25 02:29:43;;;;;;;;;;;;;;;;;;2073985;28;19913;-88
2022/07/25 02:30:43;;;;;;;;;;;;;;;;;;2073570;28;20358;-89
2022/07/25 02:31:44;;;;;;;;;;;;;;;;;;2066506;28;20016;-87
2022/07/25 02:32:49;;;;;;;;;;;;;;;;;;2066357;28;19920;-89
2022/07/25 02:33:50;;;;;;;;;;;;;;;;;;2074152;28;20011;-87
2022/07/25 02:34:53;;;;;;;;;;;;;;;;;;2074051;28;19921;-88
2022/07/25 02:36:06;;;;;;;;;;;;;;;;;;2065825;28;19918;-88
2022/07/25 02:37:16;;;;;;;;;;;;;;;;;;2067374;28;19914;-89
2022/07/25 02:38:19;;;;;;;;;;;;;;;;;;2075673;28;19910;-88
2022/07/25 02:39:24;;;;;;;;;;;;;;;;;;2073883;28;19924;-87
2022/07/25 02:40:27;;;;;;;;;;;;;;;;;;2074089;28;19913;-88
2022/07/25 02:41:30;;;;;;;;;;;;;;;;;;2073840;28;19925;-87
2022/07/25 02:42:30;;;;;;;;;;;;;;;;;;2065852;28;19924;-89
2022/07/25 02:43:33;;;;;;;;;;;;;;;;;;2065712;28;19914;-88
2022/07/25 02:44:42;;;;;;;;;;;;;;;;;;2066430;28;20343;-87
2022/07/25 02:45:44;;;;;;;;;;;;;;;;;;2065781;28;19918;-89
2022/07/25 02:46:45;;;;;;;;;;;;;;;;;;2057951;28;20371;-88
2022/07/25 02:47:47;;;;;;;;;;;;;;;;;;2065865;28;19960;-87
2022/07/25 02:48:57;;;;;;;;;;;;;;;;;;2066309;28;19918;-87
2022/07/25 02:49:58;;;;;;;;;;;;;;;;;;2073880;28;19917;-87
2022/07/25 02:50:58;;;;;;;;;;;;;;;;;;2073896;28;20362;-86
2022/07/25 02:51:58;;;;;;;;;;;;;;;;;;2073862;28;19917;-87
2022/07/25 02:53:16;;;;;;;;;;;;;;;;;;2073926;28;19914;-88
2022/07/25 02:54:18;;;;;;;;;;;;;;;;;;2066320;28;19984;-88
2022/07/25 02:55:26;;;;;;;;;;;;;;;;;;2066266;28;19988;-88
2022/07/25 02:56:29;;;;;;;;;;;;;;;;;;2073661;28;19971;-87
2022/07/25 02:57:39;;;;;;;;;;;;;;;;;;;;;
2022/07/25 02:58:48;;;;;;;;;;;;;;;;;;2072529;28;19971;-94
2022/07/25 03:00:03;;;;;;;;;;;;;;;;;;2073489;28;19917;-89
2022/07/25 03:01:06;;;;;;;;;;;;;;;;;;2072045;28;19967;-89
2022/07/25 03:02:06;;;;;;;;;;;;;;;;;;2073704;28;19972;-86
2022/07/25 03:03:07;;;;;;;;;;;;;;;;;;2074052;28;19994;-90
2022/07/25 03:04:29;;;;;;;;;;;;;;;;;;2065775;28;19941;-86
2022/07/25 03:05:32;;;;;;;;;;;;;;;;;;2060382;28;20053;-86
2022/07/25 03:06:47;;;;;;;;;;;;;;;;;;2065516;28;19953;-86
2022/07/25 03:08:06;;;;;;;;;;;;;;;;;;;;;
2022/07/25 03:09:27;;;;;;;;;;;;;;;;;;2065723;28;20427;-89
2022/07/25 03:10:27;;;;;;;;;;;;;;;;;;2065813;28;19957;-87
2022/07/25 03:11:32;;;;;;;;;;;;;;;;;;2066142;28;19918;-87
2022/07/25 03:12:35;;;;;;;;;;;;;;;;;;2073569;28;20362;-87
2022/07/25 03:13:45;;;;;;;;;;;;;;;;;;2073708;28;19913;-88
2022/07/25 03:14:55;;;;;;;;;;;;;;;;;;2073593;28;19918;-87
2022/07/25 03:16:06;;;;;;;;;;;;;;;;;;2072652;28;20290;-89
2022/07/25 03:17:09;;;;;;;;;;;;;;;;;;2065512;28;19953;-88
2022/07/25 03:18:23;;;;;;;;;;;;;;;;;;2065889;28;20375;-87
2022/07/25 03:19:34;;;;;;;;;;;;;;;;;;2065595;28;20279;-88
2022/07/25 03:20:35;;;;;;;;;;;;;;;;;;2065844;28;19976;-88
2022/07/25 03:21:38;;;;;;;;;;;;;;;;;;2066192;28;20016;-87
2022/07/25 03:22:42;;;;;;;;;;;;;;;;;;2065667;28;20009;-87
2022/07/25 03:25:12;;;;;;;;;;;;;;;;;;2066059;28;19914;-85
2022/07/25 03:26:30;;;;;;;;;;;;;;;;;;2065913;28;19914;-86
2022/07/25 03:27:50;;;;;;;;;;;;;;;;;;2066061;28;19925;-84
2022/07/25 03:29:13;;;;;;;;;;;;;;;;;;2066229;28;20013;-85
2022/07/25 03:30:13;;;;;;;;;;;;;;;;;;2068662;28;19914;-85
2022/07/25 03:31:19;;;;;;;;;;;;;;;;;;2066185;28;19914;-86
2022/07/25 03:32:22;;;;;;;;;;;;;;;;;;2065909;28;19914;-85
2022/07/25 03:33:22;;;;;;;;;;;;;;;;;;2073421;28;19941;-88
2022/07/25 03:34:32;;;;;;;;;;;;;;;;;;2073337;28;19913;-88
2022/07/25 03:35:36;;;;;;;;;;;;;;;;;;2065293;28;19921;-88
2022/07/25 03:36:45;;;;;;;;;;;;;;;;;;2065264;28;19996;-88
2022/07/25 03:37:51;;;;;;;;;;;;;;;;;;2073608;28;19913;-88
2022/07/25 03:39:01;;;;;;;;;;;;;;;;;;;;;
2022/07/25 03:40:04;;;;;;;;;;;;;;;;;;2065705;28;19915;-88
2022/07/25 03:41:09;;;;;;;;;;;;;;;;;;2073476;28;19988;-88
2022/07/25 03:42:27;;;;;;;;;;;;;;;;;;2065289;28;19914;-86
2022/07/25 03:43:29;;;;;;;;;;;;;;;;;;2067666;28;20012;-89
2022/07/25 03:44:29;;;;;;;;;;;;;;;;;;2073316;28;20000;-87
2022/07/25 03:45:34;;;;;;;;;;;;;;;;;;2073404;28;19940;-88
2022/07/25 03:46:39;;;;;;;;;;;;;;;;;;2072853;28;20291;-89
2022/07/25 03:47:50;;;;;;;;;;;;;;;;;;;;;
2022/07/25 03:49:04;;;;;;;;;;;;;;;;;;;;;
2022/07/25 03:50:13;;;;;;;;;;;;;;;;;;2065847;28;19924;-88
2022/07/25 03:51:16;;;;;;;;;;;;;;;;;;2068719;28;19925;-87
2022/07/25 03:54:22;;;;;;;;;;;;;;;;;;2076638;28;19960;-85
2022/07/25 03:55:12;;;;;;;;;;;;;;;;;;2076942;28;19914;-87
2022/07/25 03:56:23;;;;;;;;;;;;;;;;;;;;;
2022/07/25 03:57:25;;;;;;;;;;;;;;;;;;2081523;28;19924;-87
2022/07/25 03:58:26;;;;;;;;;;;;;;;;;;2074054;28;19913;-87
2022/07/25 03:59:26;;;;;;;;;;;;;;;;;;2076522;28;19913;-87
2022/07/25 04:00:31;;;;;;;;;;;;;;;;;;2067186;28;20282;-87
2022/07/25 04:01:32;;;;;;;;;;;;;;;;;;2059153;28;20367;-87
2022/07/25 04:02:38;;;;;;;;;;;;;;;;;;2066053;28;19913;-88
2022/07/25 04:03:45;;;;;;;;;;;;;;;;;;2065865;28;20347;-86
2022/07/25 04:04:48;;;;;;;;;;;;;;;;;;2068741;28;19949;-88
2022/07/25 04:05:48;;;;;;;;;;;;;;;;;;2073459;28;19921;-87
2022/07/25 04:06:52;;;;;;;;;;;;;;;;;;2073372;28;20008;-88
2022/07/25 04:07:59;;;;;;;;;;;;;;;;;;2065406;28;20017;-88
2022/07/25 04:09:06;;;;;;;;;;;;;;;;;;2068451;28;20355;-89
2022/07/25 04:10:07;;;;;;;;;;;;;;;;;;2075910;28;19940;-89
2022/07/25 04:11:12;;;;;;;;;;;;;;;;;;2076205;28;19913;-87
2022/07/25 04:12:15;;;;;;;;;;;;;;;;;;2075567;28;19952;-88
2022/07/25 04:13:15;;;;;;;;;;;;;;;;;;2065570;28;19918;-88
2022/07/25 04:14:27;;;;;;;;;;;;;;;;;;2065162;28;20367;-87
2022/07/25 04:15:35;;;;;;;;;;;;;;;;;;2065376;28;19922;-85
2022/07/25 04:16:46;;;;;;;;;;;;;;;;;;2073195;28;19948;-85
2022/07/25 04:17:46;;;;;;;;;;;;;;;;;;2073288;28;20358;-87
2022/07/25 04:18:52;;;;;;;;;;;;;;;;;;2073448;28;19920;-88
2022/07/25 04:19:55;;;;;;;;;;;;;;;;;;2065691;28;20458;-87
2022/07/25 04:20:57;;;;;;;;;;;;;;;;;;2065812;28;19913;-87
2022/07/25 04:21:58;;;;;;;;;;;;;;;;;;2065752;28;19914;-88
2022/07/25 04:23:08;;;;;;;;;;;;;;;;;;2065675;28;19924;-88
2022/07/25 04:24:08;;;;;;;;;;;;;;;;;;2073097;28;20012;-87
2022/07/25 04:25:18;;;;;;;;;;;;;;;;;;;;;
2022/07/25 04:26:19;;;;;;;;;;;;;;;;;;2065571;28;19921;-87
2022/07/25 04:27:38;;;;;;;;;;;;;;;;;;;;;
2022/07/25 04:28:43;;;;;;;;;;;;;;;;;;2065470;28;19925;-88
2022/07/25 04:29:44;;;;;;;;;;;;;;;;;;2068322;28;19918;-90
2022/07/25 04:30:44;;;;;;;;;;;;;;;;;;2065571;28;19913;-88
2022/07/25 04:31:51;;;;;;;;;;;;;;;;;;2073303;28;19917;-88
2022/07/25 04:32:55;;;;;;;;;;;;;;;;;;2072644;28;19972;-88
2022/07/25 04:33:55;;;;;;;;;;;;;;;;;;2073119;28;19914;-88
2022/07/25 04:35:01;;;;;;;;;;;;;;;;;;2073158;28;19974;-87
2022/07/25 04:36:14;;;;;;;;;;;;;;;;;;2065056;28;19918;-87
2022/07/25 04:37:19;;;;;;;;;;;;;;;;;;2065666;28;19948;-88
2022/07/25 04:38:24;;;;;;;;;;;;;;;;;;2065149;28;20300;-87
2022/07/25 04:39:27;;;;;;;;;;;;;;;;;;2065815;28;19952;-88
2022/07/25 04:40:31;;;;;;;;;;;;;;;;;;2073090;28;19918;-87
2022/07/25 04:41:33;;;;;;;;;;;;;;;;;;2072713;28;20256;-88
2022/07/25 04:42:48;;;;;;;;;;;;;;;;;;2065154;28;19913;-89
2022/07/25 04:43:52;;;;;;;;;;;;;;;;;;2061665;28;19928;-87
2022/07/25 04:44:55;;;;;;;;;;;;;;;;;;2068415;28;19925;-87
2022/07/25 04:45:55;;;;;;;;;;;;;;;;;;2059683;28;19925;-86
2022/07/25 04:46:57;;;;;;;;;;;;;;;;;;2068935;28;19917;-87
2022/07/25 04:48:01;;;;;;;;;;;;;;;;;;2068289;28;20378;-87
2022/07/25 04:49:01;;;;;;;;;;;;;;;;;;2069866;28;20306;-88
2022/07/25 04:50:02;;;;;;;;;;;;;;;;;;2068623;28;20012;-88
2022/07/25 04:51:04;;;;;;;;;;;;;;;;;;2071933;28;19918;-86
2022/07/25 04:52:09;;;;;;;;;;;;;;;;;;2064040;28;19925;-87
2022/07/25 04:53:10;;;;;;;;;;;;;;;;;;2072120;28;19957;-87
2022/07/25 04:54:31;;;;;;;;;;;;;;;;;;2072643;28;19913;-87
2022/07/25 04:55:35;;;;;;;;;;;;;;;;;;2062943;28;19920;-87
2022/07/25 04:56:43;;;;;;;;;;;;;;;;;;2064667;28;19929;-87
2022/07/25 04:57:45;;;;;;;;;;;;;;;;;;2065769;28;19924;-87
2022/07/25 04:58:58;;;;;;;;;;;;;;;;;;;;;
2022/07/25 05:01:19;;;;;;;;;;;;;;;;;;2068307;28;19924;-87
2022/07/25 05:03:42;;;;;;;;;;;;;;;;;;2065020;28;20264;-87
2022/07/25 05:04:42;;;;;;;;;;;;;;;;;;2068135;28;19914;-87
2022/07/25 05:05:45;;;;;;;;;;;;;;;;;;2065265;28;19922;-86
2022/07/25 05:06:46;;;;;;;;;;;;;;;;;;2064560;28;19915;-87
2022/07/25 05:08:03;;;;;;;;;;;;;;;;;;2065212;28;19953;-88
2022/07/25 05:09:07;;;;;;;;;;;;;;;;;;2069093;28;20008;-87
2022/07/25 05:10:19;;;;;;;;;;;;;;;;;;2065077;28;19937;-87
2022/07/25 05:13:01;;;;;;;;;;;;;;;;;;;;;
2022/07/25 05:14:04;;;;;;;;;;;;;;;;;;2063833;28;19914;-87
2022/07/25 05:15:05;;;;;;;;;;;;;;;;;;2066622;28;19949;-88
2022/07/25 05:16:17;;;;;;;;;;;;;;;;;;2067081;28;20206;-85
2022/07/25 05:17:22;;;;;;;;;;;;;;;;;;2069653;28;19953;-87
2022/07/25 05:18:22;;;;;;;;;;;;;;;;;;2065893;28;19914;-87
2022/07/25 05:19:22;;;;;;;;;;;;;;;;;;2065746;28;20322;-87
2022/07/25 05:20:23;;;;;;;;;;;;;;;;;;2063598;28;20279;-87
2022/07/25 05:21:32;;;;;;;;;;;;;;;;;;2066341;28;20346;-87
2022/07/25 05:22:35;;;;;;;;;;;;;;;;;;2074625;28;19913;-87
2022/07/25 05:23:45;;;;;;;;;;;;;;;;;;2074448;28;19983;-87
2022/07/25 05:24:49;;;;;;;;;;;;;;;;;;2068028;28;20279;-87
2022/07/25 05:25:59;;;;;;;;;;;;;;;;;;;;;
2022/07/25 05:27:05;;;;;;;;;;;;;;;;;;2067125;28;19944;-87
2022/07/25 05:28:08;;;;;;;;;;;;;;;;;;2074735;28;20414;-86
2022/07/25 05:29:18;;;;;;;;;;;;;;;;;;2066106;28;20382;-87
2022/07/25 05:30:28;;;;;;;;;;;;;;;;;;;;;
2022/07/25 05:31:29;;;;;;;;;;;;;;;;;;2073640;28;19913;-87
2022/07/25 05:32:42;;;;;;;;;;;;;;;;;;2074916;28;19979;-90
2022/07/25 05:34:00;;;;;;;;;;;;;;;;;;2076047;28;19913;-85
2022/07/25 05:35:00;;;;;;;;;;;;;;;;;;2066835;28;19913;-86
2022/07/25 05:36:02;;;;;;;;;;;;;;;;;;2066464;28;19924;-85
2022/07/25 05:37:02;;;;;;;;;;;;;;;;;;2066470;28;20012;-86
2022/07/25 05:38:03;;;;;;;;;;;;;;;;;;2066401;28;19914;-85
2022/07/25 05:39:21;;;;;;;;;;;;;;;;;;2066565;28;19936;-85
2022/07/25 05:40:23;;;;;;;;;;;;;;;;;;2066866;28;19980;-83
2022/07/25 05:41:40;;;;;;;;;;;;;;;;;;2066939;28;20039;-86
2022/07/25 05:42:52;;;;;;;;;;;;;;;;;;2074475;28;20009;-88
2022/07/25 05:43:53;;;;;;;;;;;;;;;;;;2073122;28;19913;-85
2022/07/25 05:44:56;;;;;;;;;;;;;;;;;;2066693;28;19921;-87
2022/07/25 05:46:05;;;;;;;;;;;;;;;;;;2074745;28;19991;-87
2022/07/25 05:47:09;;;;;;;;;;;;;;;;;;2066110;28;19914;-87
2022/07/25 05:48:35;;;;;;;;;;;;;;;;;;2066568;28;19914;-87
2022/07/25 05:49:45;;;;;;;;;;;;;;;;;;2068688;28;20334;-86
2022/07/25 05:50:57;;;;;;;;;;;;;;;;;;;;;
2022/07/25 05:51:58;;;;;;;;;;;;;;;;;;2064711;28;19965;-87
2022/07/25 05:53:08;;;;;;;;;;;;;;;;;;;;;
2022/07/25 05:54:11;;;;;;;;;;;;;;;;;;2063815;28;19985;-86
2022/07/25 05:55:12;;;;;;;;;;;;;;;;;;2066922;28;19918;-87
2022/07/25 05:56:12;;;;;;;;;;;;;;;;;;2066526;28;20327;-88
2022/07/25 05:57:18;;;;;;;;;;;;;;;;;;2059636;28;19918;-86
2022/07/25 05:58:20;;;;;;;;;;;;;;;;;;2064633;28;20302;-86
2022/07/25 05:59:20;;;;;;;;;;;;;;;;;;2074487;28;19913;-85
2022/07/25 06:00:21;;;;;;;;;;;;;;;;;;2074559;28;20358;-86
2022/07/25 06:01:23;;;;;;;;;;;;;;;;;;2066838;28;19972;-86
2022/07/25 06:02:24;;;;;;;;;;;;;;;;;;2066848;28;19914;-85
2022/07/25 06:03:27;;;;;;;;;;;;;;;;;;2066766;28;20394;-86
2022/07/25 06:04:30;;;;;;;;;;;;;;;;;;2066739;28;20366;-84
2022/07/25 06:05:30;;;;;;;;;;;;;;;;;;2066891;28;20374;-85
2022/07/25 06:06:33;;;;;;;;;;;;;;;;;;2066703;28;19914;-83
2022/07/25 06:07:53;;;;;;;;;;;;;;;;;;2066799;28;19914;-85
2022/07/25 06:09:14;;;;;;;;;;;;;;;;;;2067175;28;19914;-86
2022/07/25 06:10:20;;;;;;;;;;;;;;;;;;2066298;28;19953;-86
2022/07/25 06:11:25;;;;;;;;;;;;;;;;;;2066329;28;20359;-86
2022/07/25 06:12:35;;;;;;;;;;;;;;;;;;2068636;28;19915;-86
2022/07/25 06:15:04;;;;;;;;;;;;;;;;;;2064779;28;19937;-86
2022/07/25 06:16:21;;;;;;;;;;;;;;;;;;2066574;28;19972;-86
2022/07/25 06:17:23;;;;;;;;;;;;;;;;;;2065162;28;19913;-86
2022/07/25 06:18:26;;;;;;;;;;;;;;;;;;2065016;28;19929;-87
2022/07/25 06:19:53;;;;;;;;;;;;;;;;;;2066334;28;20012;-87
2022/07/25 06:21:15;;;;;;;;;;;;;;;;;;2061059;28;19924;-84
2022/07/25 06:22:20;;;;;;;;;;;;;;;;;;2067594;28;20371;-85
2022/07/25 06:23:21;;;;;;;;;;;;;;;;;;2065993;28;20375;-85
2022/07/25 06:24:31;;;;;;;;;;;;;;;;;;2058022;28;19914;-85
2022/07/25 06:25:44;;;;;;;;;;;;;;;;;;;;;
2022/07/25 06:26:47;;;;;;;;;;;;;;;;;;2058798;28;19914;-85
2022/07/25 06:27:49;;;;;;;;;;;;;;;;;;2066099;28;19914;-85
2022/07/25 06:29:04;;;;;;;;;;;;;;;;;;2058740;28;19922;-86
2022/07/25 06:30:05;;;;;;;;;;;;;;;;;;2066603;28;19980;-86
2022/07/25 06:31:08;;;;;;;;;;;;;;;;;;2066513;28;19949;-82
2022/07/25 06:32:17;;;;;;;;;;;;;;;;;;2066487;28;19917;-87
2022/07/25 06:33:17;;;;;;;;;;;;;;;;;;2066347;28;19913;-82
2022/07/25 06:34:18;;;;;;;;;;;;;;;;;;2066570;28;20004;-85
2022/07/25 06:35:21;;;;;;;;;;;;;;;;;;2066411;28;19944;-84
2022/07/25 06:36:26;;;;;;;;;;;;;;;;;;2065737;28;20259;-96
2022/07/25 06:37:30;;;;;;;;;;;;;;;;;;2068140;28;19975;-90
2022/07/25 06:38:30;;;;;;;;;;;;;;;;;;2066619;28;20359;-94
2022/07/25 06:39:43;;;;;;;;;;;;;;;;;;;;;
2022/07/25 06:41:08;;;;;;;;;;;;;;;;;;2067394;28;19913;-93
2022/07/25 06:42:11;;;;;;;;;;;;;;;;;;2058151;28;20020;-93
2022/07/25 06:43:12;;;;;;;;;;;;;;;;;;2059188;28;19942;-91
2022/07/25 06:44:12;;;;;;;;;;;;;;;;;;2067168;28;19914;-96
2022/07/25 06:45:39;;;;;;;;;;;;;;;;;;2075134;28;19918;-96
2022/07/25 06:46:46;;;;;;;;;;;;;;;;;;2071510;28;19956;-94
2022/07/25 06:47:50;;;;;;;;;;;;;;;;;;2068259;28;19921;-94
2022/07/25 06:48:50;;;;;;;;;;;;;;;;;;2073877;28;19914;-96
2022/07/25 06:49:53;;;;;;;;;;;;;;;;;;2074674;28;19920;-94
2022/07/25 06:51:03;;;;;;;;;;;;;;;;;;2067011;28;19914;-95
2022/07/25 06:52:04;;;;;;;;;;;;;;;;;;2071053;28;19913;-94
2022/07/25 06:53:05;;;;;;;;;;;;;;;;;;2067524;28;19913;-95
2022/07/25 06:54:05;;;;;;;;;;;;;;;;;;2066511;28;19917;-95
2022/07/25 06:55:08;;;;;;;;;;;;;;;;;;2074621;28;19914;-91
2022/07/25 06:56:11;;;;;;;;;;;;;;;;;;2072860;28;20324;-95
2022/07/25 06:57:24;;;;;;;;;;;;;;;;;;;;;
2022/07/25 06:58:29;;;;;;;;;;;;;;;;;;2067224;28;19913;-93
2022/07/25 06:59:33;;;;;;;;;;;;;;;;;;2066182;28;19914;-92
2022/07/25 07:00:38;;;;;;;;;;;;;;;;;;2065857;28;20287;-94
2022/07/25 07:02:02;;;;;;;;;;;;;;;;;;2077263;28;19943;-96
2022/07/25 07:03:02;;;;;;;;;;;;;;;;;;2071642;28;19924;-93
2022/07/25 07:04:16;;;;;;;;;;;;;;;;;;2067610;28;19914;-92
2022/07/25 07:05:19;;;;;;;;;;;;;;;;;;2067557;28;19913;-96
2022/07/25 07:06:31;;;;;;;;;;;;;;;;;;2066523;28;19922;-91
2022/07/25 07:07:44;;;;;;;;;;;;;;;;;;2068005;28;19918;-96
2022/07/25 07:09:04;;;;;;;;;;;;;;;;;;2068524;28;20004;-95
2022/07/25 07:10:09;;;;;;;;;;;;;;;;;;2072507;28;20409;-95
2022/07/25 07:11:14;;;;;;;;;;;;;;;;;;2074620;28;19913;-94
2022/07/25 07:12:17;;;;;;;;;;;;;;;;;;2068949;28;20339;-92
2022/07/25 07:13:18;;;;;;;;;;;;;;;;;;2068943;28;19918;-94
2022/07/25 07:14:21;;;;;;;;;;;;;;;;;;2066798;28;19940;-86
2022/07/25 07:15:34;;;;;;;;;;;;;;;;;;;;;
2022/07/25 07:16:42;;;;;;;;;;;;;;;;;;2066421;28;20352;-95
2022/07/25 07:17:45;;;;;;;;;;;;;;;;;;2067871;28;20019;-93
2022/07/25 07:18:55;;;;;;;;;;;;;;;;;;2066526;28;19928;-93
2022/07/25 07:20:00;;;;;;;;;;;;;;;;;;2066508;28;20390;-96
2022/07/25 07:21:12;;;;;;;;;;;;;;;;;;2066994;28;19913;-96
2022/07/25 07:22:30;;;;;;;;;;;;;;;;;;2075393;28;19917;-96
2022/07/25 07:23:33;;;;;;;;;;;;;;;;;;2067725;28;20020;-95
2022/07/25 07:24:36;;;;;;;;;;;;;;;;;;2064520;28;19918;-96
2022/07/25 07:25:45;;;;;;;;;;;;;;;;;;2068169;28;19947;-96
2022/07/25 07:26:46;;;;;;;;;;;;;;;;;;2060200;28;19914;-94
2022/07/25 07:27:46;;;;;;;;;;;;;;;;;;2066298;28;19928;-88
2022/07/25 07:28:47;;;;;;;;;;;;;;;;;;2065385;28;19914;-96
2022/07/25 07:31:21;;;;;;;;;;;;;;;;;;2055536;28;19984;-96
2022/07/25 07:32:22;;;;;;;;;;;;;;;;;;2073306;28;19918;-95
2022/07/25 07:33:32;;;;;;;;;;;;;;;;;;2070678;28;20240;-95
2022/07/25 07:34:41;;;;;;;;;;;;;;;;;;2065877;28;20356;-93
2022/07/25 07:35:54;;;;;;;;;;;;;;;;;;2073293;28;19913;-90
2022/07/25 07:38:37;;;;;;;;;;;;;;;;;;2065535;28;20279;-94
2022/07/25 07:39:41;;;;;;;;;;;;;;;;;;2074971;28;19922;-96